createdAt,value
2023-04-03T00:00:12.539Z,4.90
2023-04-03T00:01:12.546Z,4.86
2023-04-03T00:02:12.581Z,4.90
2023-04-03T00:03:12.517Z,4.84
2023-04-03T00:04:12.508Z,4.87
2023-04-03T00:05:12.479Z,4.90
2023-04-03T00:06:12.468Z,4.87
2023-04-03T00:07:12.470Z,4.90
2023-04-03T00:08:12.442Z,4.82
2023-04-03T00:09:12.440Z,4.77
2023-04-03T00:10:12.423Z,4.87
2023-04-03T00:11:12.421Z,4.74
2023-04-03T00:12:12.426Z,4.87
2023-04-03T00:13:12.384Z,4.89
2023-04-03T00:14:12.401Z,4.82
2023-04-03T00:15:12.377Z,4.77
2023-04-03T00:16:12.410Z,4.74
2023-04-03T00:17:12.365Z,4.71
2023-04-03T00:18:12.342Z,4.80
2023-04-03T00:19:12.329Z,4.70
2023-04-03T00:20:12.332Z,4.70
2023-04-03T00:21:12.307Z,4.84
2023-04-03T00:22:12.309Z,4.73
2023-04-03T00:23:12.287Z,4.75
2023-04-03T00:24:12.272Z,4.77
2023-04-03T00:25:12.257Z,4.68
2023-04-03T00:26:12.250Z,4.56
2023-04-03T00:27:12.246Z,4.56
2023-04-03T00:28:12.227Z,4.68
2023-04-03T00:29:12.210Z,4.62
2023-04-03T00:30:12.240Z,4.71
2023-04-03T00:31:12.223Z,4.59
2023-04-03T00:32:12.183Z,4.66
2023-04-03T00:33:12.181Z,4.62
2023-04-03T00:34:12.154Z,4.63
2023-04-03T00:35:12.141Z,4.60
2023-04-03T00:36:12.231Z,4.58
2023-04-03T00:37:12.117Z,4.50
2023-04-03T00:38:12.117Z,4.53
2023-04-03T00:39:12.100Z,4.50
2023-04-03T00:40:12.090Z,4.48
2023-04-03T00:41:12.072Z,4.48
2023-04-03T00:42:12.067Z,4.48
2023-04-03T00:43:12.059Z,4.55
2023-04-03T00:44:12.045Z,4.45
2023-04-03T00:45:12.050Z,4.42
2023-04-03T00:46:12.099Z,4.40
2023-04-03T00:47:12.008Z,4.42
2023-04-03T00:48:11.999Z,4.41
2023-04-03T00:49:11.994Z,4.35
2023-04-03T00:50:11.981Z,4.38
2023-04-03T00:51:11.975Z,4.48
2023-04-03T00:52:11.962Z,4.38
2023-04-03T00:53:11.969Z,4.45
2023-04-03T00:54:11.936Z,4.40
2023-04-03T00:55:11.923Z,4.38
2023-04-03T00:56:11.926Z,4.37
2023-04-03T00:57:11.993Z,4.35
2023-04-03T00:58:11.898Z,4.42
2023-04-03T00:59:11.895Z,4.40
2023-04-03T01:00:11.871Z,4.40
2023-04-03T01:01:11.878Z,4.42
2023-04-03T01:02:11.981Z,4.45
2023-04-03T01:03:11.833Z,4.34
2023-04-03T01:04:11.849Z,4.40
2023-04-03T01:05:11.811Z,4.32
2023-04-03T01:06:11.816Z,4.30
2023-04-03T01:07:11.792Z,4.26
2023-04-03T01:08:11.780Z,4.28
2023-04-03T01:09:11.774Z,4.28
2023-04-03T01:10:11.797Z,4.31
2023-04-03T01:11:11.752Z,4.31
2023-04-03T01:12:11.739Z,4.13
2023-04-03T01:13:11.722Z,4.13
2023-04-03T01:14:11.722Z,4.13
2023-04-03T01:15:11.700Z,4.16
2023-04-03T01:16:11.755Z,4.20
2023-04-03T01:17:11.684Z,4.13
2023-04-03T01:18:11.692Z,4.20
2023-04-03T01:19:11.664Z,4.17
2023-04-03T01:20:11.658Z,4.17
2023-04-03T01:21:11.644Z,4.16
2023-04-03T01:22:11.626Z,4.14
2023-04-03T01:23:11.701Z,4.12
2023-04-03T01:24:11.607Z,4.06
2023-04-03T01:25:11.595Z,4.13
2023-04-03T01:26:11.602Z,4.20
2023-04-03T01:27:11.629Z,4.05
2023-04-03T01:28:11.569Z,4.12
2023-04-03T01:29:11.545Z,4.10
2023-04-03T01:30:11.540Z,3.96
2023-04-03T01:31:11.562Z,3.96
2023-04-03T01:32:11.531Z,3.99
2023-04-03T01:33:11.500Z,4.02
2023-04-03T01:34:11.517Z,3.99
2023-04-03T01:35:11.479Z,3.96
2023-04-03T01:36:11.528Z,3.98
2023-04-03T01:37:11.477Z,3.87
2023-04-03T01:38:11.446Z,3.81
2023-04-03T01:39:11.433Z,3.91
2023-04-03T01:40:11.429Z,3.86
2023-04-03T01:41:11.412Z,3.91
2023-04-03T01:42:11.427Z,3.91
2023-04-03T01:43:11.389Z,3.81
2023-04-03T01:44:11.379Z,3.83
2023-04-03T01:45:11.372Z,3.86
2023-04-03T01:46:11.447Z,3.83
2023-04-03T01:47:11.344Z,3.86
2023-04-03T01:48:11.359Z,3.83
2023-04-03T01:49:11.332Z,3.86
2023-04-03T01:50:11.339Z,3.81
2023-04-03T01:51:11.303Z,3.81
2023-04-03T01:52:11.294Z,3.80
2023-04-03T01:53:11.286Z,3.83
2023-04-03T01:54:11.297Z,3.87
2023-04-03T01:55:11.266Z,3.91
2023-04-03T01:56:11.249Z,3.84
2023-04-03T01:57:11.303Z,3.88
2023-04-03T01:58:11.236Z,3.95
2023-04-03T01:59:11.219Z,3.86
2023-04-03T02:00:11.235Z,3.88
2023-04-03T02:01:11.258Z,3.83
2023-04-03T02:02:11.180Z,3.80
2023-04-03T02:03:11.196Z,3.74
2023-04-03T02:04:11.208Z,3.81
2023-04-03T02:05:11.142Z,3.83
2023-04-03T02:06:12.787Z,3.80
2023-04-03T02:07:11.140Z,3.80
2023-04-03T02:08:11.115Z,3.73
2023-04-03T02:09:11.113Z,3.76
2023-04-03T02:10:11.100Z,3.81
2023-04-03T02:11:11.084Z,3.81
2023-04-03T02:12:11.081Z,3.83
2023-04-03T02:13:11.053Z,3.74
2023-04-03T02:14:11.059Z,3.74
2023-04-03T02:15:11.030Z,3.76
2023-04-03T02:16:11.112Z,3.81
2023-04-03T02:17:11.011Z,3.73
2023-04-03T02:18:11.005Z,3.83
2023-04-03T02:19:11.012Z,3.83
2023-04-03T02:20:10.987Z,3.77
2023-04-03T02:21:10.961Z,3.78
2023-04-03T02:22:10.979Z,3.81
2023-04-03T02:23:10.937Z,3.73
2023-04-03T02:24:10.943Z,3.68
2023-04-03T02:25:10.948Z,3.73
2023-04-03T02:26:10.907Z,3.68
2023-04-03T02:27:10.897Z,3.60
2023-04-03T02:28:10.887Z,3.62
2023-04-03T02:29:10.870Z,3.60
2023-04-03T02:30:10.867Z,3.55
2023-04-03T02:31:10.946Z,3.74
2023-04-03T02:32:10.840Z,3.69
2023-04-03T02:33:10.826Z,3.66
2023-04-03T02:34:10.837Z,3.76
2023-04-03T02:35:10.805Z,3.74
2023-04-03T02:36:10.805Z,3.76
2023-04-03T02:37:10.785Z,3.70
2023-04-03T02:38:10.800Z,3.76
2023-04-03T02:39:10.783Z,3.78
2023-04-03T02:40:10.751Z,3.74
2023-04-03T02:41:10.757Z,3.62
2023-04-03T02:42:10.729Z,3.65
2023-04-03T02:43:10.715Z,3.68
2023-04-03T02:44:10.717Z,3.63
2023-04-03T02:45:10.697Z,3.60
2023-04-03T02:46:10.725Z,3.65
2023-04-03T02:47:10.696Z,3.63
2023-04-03T02:48:10.752Z,3.56
2023-04-03T02:49:10.654Z,3.51
2023-04-03T02:50:10.641Z,3.55
2023-04-03T02:51:10.630Z,3.53
2023-04-03T02:52:10.645Z,3.51
2023-04-03T02:53:10.623Z,3.29
2023-04-03T02:54:10.621Z,3.41
2023-04-03T02:55:10.592Z,3.45
2023-04-03T02:56:10.591Z,3.48
2023-04-03T02:57:10.597Z,3.28
2023-04-03T02:58:10.561Z,3.28
2023-04-03T02:59:10.549Z,3.11
2023-04-03T03:00:10.537Z,3.14
2023-04-03T03:01:10.579Z,3.19
2023-04-03T03:02:10.519Z,3.19
2023-04-03T03:03:10.510Z,3.19
2023-04-03T03:04:10.501Z,3.14
2023-04-03T03:05:10.536Z,3.18
2023-04-03T03:06:10.466Z,3.04
2023-04-03T03:07:10.460Z,3.11
2023-04-03T03:08:10.444Z,3.00
2023-04-03T03:09:10.440Z,3.05
2023-04-03T03:10:10.442Z,3.03
2023-04-03T03:11:10.410Z,3.07
2023-04-03T03:12:10.413Z,3.13
2023-04-03T03:13:10.386Z,3.10
2023-04-03T03:14:10.393Z,3.14
2023-04-03T03:15:10.363Z,3.05
2023-04-03T03:16:10.394Z,3.07
2023-04-03T03:17:10.358Z,3.05
2023-04-03T03:18:10.350Z,3.08
2023-04-03T03:19:10.318Z,3.04
2023-04-03T03:20:10.325Z,2.98
2023-04-03T03:21:10.298Z,2.95
2023-04-03T03:22:10.285Z,2.87
2023-04-03T03:23:10.276Z,2.95
2023-04-03T03:24:10.264Z,2.87
2023-04-03T03:25:10.265Z,2.90
2023-04-03T03:26:10.270Z,2.86
2023-04-03T03:27:10.226Z,2.77
2023-04-03T03:28:10.219Z,2.80
2023-04-03T03:29:10.210Z,2.80
2023-04-03T03:30:10.193Z,2.75
2023-04-03T03:31:10.238Z,2.79
2023-04-03T03:32:10.176Z,2.74
2023-04-03T03:33:10.167Z,2.68
2023-04-03T03:34:10.148Z,2.65
2023-04-03T03:35:10.136Z,2.71
2023-04-03T03:36:10.197Z,2.72
2023-04-03T03:37:10.119Z,2.71
2023-04-03T03:38:10.107Z,2.67
2023-04-03T03:39:10.105Z,2.68
2023-04-03T03:40:10.081Z,2.72
2023-04-03T03:41:10.104Z,2.61
2023-04-03T03:42:10.082Z,2.65
2023-04-03T03:43:10.063Z,2.57
2023-04-03T03:44:10.056Z,2.67
2023-04-03T03:45:10.038Z,2.60
2023-04-03T03:46:10.055Z,2.57
2023-04-03T03:47:10.017Z,2.50
2023-04-03T03:48:10.011Z,2.53
2023-04-03T03:49:09.988Z,2.53
2023-04-03T03:50:09.974Z,2.50
2023-04-03T03:51:10.007Z,2.43
2023-04-03T03:52:09.956Z,2.49
2023-04-03T03:53:09.950Z,2.47
2023-04-03T03:54:09.923Z,2.33
2023-04-03T03:55:09.919Z,2.31
2023-04-03T03:56:09.916Z,2.35
2023-04-03T03:57:10.007Z,2.31
2023-04-03T03:58:09.940Z,2.31
2023-04-03T03:59:09.874Z,2.29
2023-04-03T04:00:09.868Z,2.32
2023-04-03T04:01:09.892Z,2.26
2023-04-03T04:02:09.868Z,2.31
2023-04-03T04:03:09.895Z,2.14
2023-04-03T04:04:09.864Z,2.18
2023-04-03T04:05:09.817Z,2.20
2023-04-03T04:06:09.803Z,2.15
2023-04-03T04:07:09.783Z,2.14
2023-04-03T04:08:09.770Z,2.22
2023-04-03T04:09:09.767Z,2.17
2023-04-03T04:10:09.767Z,2.17
2023-04-03T04:11:09.750Z,2.25
2023-04-03T04:12:09.742Z,2.10
2023-04-03T04:13:09.716Z,2.10
2023-04-03T04:14:09.723Z,2.04
2023-04-03T04:15:09.700Z,2.10
2023-04-03T04:16:09.702Z,2.08
2023-04-03T04:17:09.679Z,2.14
2023-04-03T04:18:09.668Z,2.11
2023-04-03T04:19:09.671Z,2.10
2023-04-03T04:20:09.643Z,2.08
2023-04-03T04:21:09.659Z,2.06
2023-04-03T04:22:09.617Z,2.00
2023-04-03T04:23:09.606Z,1.97
2023-04-03T04:24:09.606Z,1.94
2023-04-03T04:25:09.585Z,1.92
2023-04-03T04:26:09.571Z,1.89
2023-04-03T04:27:09.561Z,1.94
2023-04-03T04:28:09.580Z,1.80
2023-04-03T04:29:09.538Z,1.91
2023-04-03T04:30:09.579Z,1.81
2023-04-03T04:31:09.729Z,1.91
2023-04-03T04:32:09.506Z,1.78
2023-04-03T04:33:09.584Z,1.91
2023-04-03T04:34:09.496Z,1.94
2023-04-03T04:35:09.513Z,1.92
2023-04-03T04:36:09.542Z,1.80
2023-04-03T04:37:09.488Z,1.80
2023-04-03T04:38:09.456Z,1.89
2023-04-03T04:39:09.443Z,1.89
2023-04-03T04:40:09.413Z,1.81
2023-04-03T04:41:09.412Z,1.85
2023-04-03T04:42:09.394Z,1.89
2023-04-03T04:43:09.382Z,1.94
2023-04-03T04:44:09.371Z,1.91
2023-04-03T04:45:09.373Z,1.85
2023-04-03T04:46:09.436Z,1.84
2023-04-03T04:47:09.336Z,1.74
2023-04-03T04:48:09.327Z,1.80
2023-04-03T04:49:09.316Z,1.74
2023-04-03T04:50:09.313Z,1.76
2023-04-03T04:51:09.293Z,1.74
2023-04-03T04:52:09.287Z,1.80
2023-04-03T04:53:09.291Z,1.80
2023-04-03T04:54:09.253Z,1.77
2023-04-03T04:55:09.244Z,1.74
2023-04-03T04:56:09.240Z,1.70
2023-04-03T04:57:09.326Z,1.68
2023-04-03T04:58:09.216Z,1.71
2023-04-03T04:59:09.224Z,1.70
2023-04-03T05:00:09.220Z,1.70
2023-04-03T05:01:09.219Z,1.76
2023-04-03T05:02:09.232Z,1.67
2023-04-03T05:03:09.209Z,1.77
2023-04-03T05:04:09.142Z,1.74
2023-04-03T05:05:09.218Z,1.76
2023-04-03T05:06:09.150Z,1.70
2023-04-03T05:07:09.117Z,1.66
2023-04-03T05:08:09.138Z,1.68
2023-04-03T05:09:09.126Z,1.67
2023-04-03T05:10:09.087Z,1.70
2023-04-03T05:11:09.079Z,1.63
2023-04-03T05:12:09.056Z,1.62
2023-04-03T05:13:09.056Z,1.60
2023-04-03T05:14:09.048Z,1.70
2023-04-03T05:15:09.046Z,1.63
2023-04-03T05:16:09.020Z,1.62
2023-04-03T05:17:09.005Z,1.62
2023-04-03T05:18:09.037Z,1.60
2023-04-03T05:19:08.985Z,1.56
2023-04-03T05:20:08.966Z,1.66
2023-04-03T05:21:08.960Z,1.68
2023-04-03T05:22:08.955Z,1.71
2023-04-03T05:23:08.944Z,1.70
2023-04-03T05:24:08.939Z,1.56
2023-04-03T05:25:08.919Z,1.63
2023-04-03T05:26:08.904Z,1.66
2023-04-03T05:27:08.896Z,1.60
2023-04-03T05:28:08.911Z,1.59
2023-04-03T05:29:08.917Z,1.67
2023-04-03T05:30:08.864Z,1.68
2023-04-03T05:31:08.881Z,1.70
2023-04-03T05:32:08.839Z,1.71
2023-04-03T05:33:08.857Z,1.73
2023-04-03T05:34:08.842Z,1.70
2023-04-03T05:35:08.803Z,1.71
2023-04-03T05:36:08.829Z,1.67
2023-04-03T05:37:08.792Z,1.74
2023-04-03T05:38:08.767Z,1.71
2023-04-03T05:39:08.762Z,1.74
2023-04-03T05:40:08.763Z,1.74
2023-04-03T05:41:08.740Z,1.77
2023-04-03T05:42:08.732Z,1.81
2023-04-03T05:43:08.715Z,1.77
2023-04-03T05:44:08.694Z,1.74
2023-04-03T05:45:08.699Z,1.71
2023-04-03T05:46:08.720Z,1.71
2023-04-03T05:47:08.672Z,1.78
2023-04-03T05:48:08.687Z,1.68
2023-04-03T05:49:08.660Z,1.74
2023-04-03T05:50:08.657Z,1.76
2023-04-03T05:51:08.624Z,1.84
2023-04-03T05:52:08.643Z,1.84
2023-04-03T05:53:08.605Z,1.87
2023-04-03T05:54:08.585Z,1.88
2023-04-03T05:55:08.604Z,1.88
2023-04-03T05:56:08.590Z,1.92
2023-04-03T05:57:08.570Z,1.89
2023-04-03T05:58:10.466Z,1.91
2023-04-03T05:59:15.640Z,1.89
2023-04-03T06:00:08.515Z,1.94
2023-04-03T06:01:08.516Z,2.08
2023-04-03T06:02:08.510Z,2.24
2023-04-03T06:03:08.704Z,2.49
2023-04-03T06:04:08.549Z,2.89
2023-04-03T06:05:08.492Z,3.23
2023-04-03T06:06:08.481Z,3.53
2023-04-03T06:07:08.473Z,3.81
2023-04-03T06:08:08.442Z,4.22
2023-04-03T06:09:08.422Z,4.52
2023-04-03T06:10:08.414Z,4.73
2023-04-03T06:11:08.411Z,4.99
2023-04-03T06:12:08.406Z,5.20
2023-04-03T06:13:08.384Z,5.46
2023-04-03T06:14:08.385Z,5.57
2023-04-03T06:15:08.354Z,5.68
2023-04-03T06:16:08.343Z,5.83
2023-04-03T06:17:08.388Z,5.83
2023-04-03T06:18:08.396Z,5.93
2023-04-03T06:19:08.318Z,5.98
2023-04-03T06:20:08.293Z,6.02
2023-04-03T06:21:08.295Z,6.19
2023-04-03T06:22:08.292Z,6.28
2023-04-03T06:23:08.683Z,6.57
2023-04-03T06:24:08.287Z,6.74
2023-04-03T06:25:08.253Z,6.72
2023-04-03T06:26:08.233Z,6.88
2023-04-03T06:27:08.216Z,7.10
2023-04-03T06:28:08.216Z,7.18
2023-04-03T06:29:08.213Z,7.21
2023-04-03T06:30:08.208Z,7.32
2023-04-03T06:31:08.202Z,7.43
2023-04-03T06:32:08.164Z,7.56
2023-04-03T06:33:08.184Z,7.77
2023-04-03T06:34:09.721Z,8.03
2023-04-03T06:35:08.172Z,8.09
2023-04-03T06:36:08.198Z,8.06
2023-04-03T06:37:08.108Z,8.13
2023-04-03T06:38:08.118Z,8.15
2023-04-03T06:39:08.084Z,8.36
2023-04-03T06:40:08.076Z,8.60
2023-04-03T06:41:08.071Z,8.76
2023-04-03T06:42:08.067Z,8.81
2023-04-03T06:43:08.034Z,8.91
2023-04-03T06:44:08.026Z,9.11
2023-04-03T06:45:08.025Z,9.14
2023-04-03T06:46:08.115Z,9.21
2023-04-03T06:47:07.993Z,9.29
2023-04-03T06:48:07.989Z,9.19
2023-04-03T06:49:08.162Z,8.79
2023-04-03T06:50:07.962Z,8.94
2023-04-03T06:51:07.961Z,9.08
2023-04-03T06:52:07.948Z,9.31
2023-04-03T06:53:07.932Z,9.37
2023-04-03T06:54:07.971Z,9.43
2023-04-03T06:55:07.918Z,9.32
2023-04-03T06:56:07.895Z,9.26
2023-04-03T06:57:07.922Z,9.47
2023-04-03T06:58:07.871Z,9.79
2023-04-03T06:59:07.867Z,10.01
2023-04-03T07:00:07.847Z,10.17
2023-04-03T07:01:07.847Z,10.23
2023-04-03T07:02:07.890Z,9.83
2023-04-03T07:03:07.877Z,9.64
2023-04-03T07:04:07.814Z,9.69
2023-04-03T07:05:07.811Z,9.41
2023-04-03T07:06:07.792Z,8.84
2023-04-03T07:07:07.758Z,9.06
2023-04-03T07:08:07.769Z,9.25
2023-04-03T07:09:07.745Z,9.28
2023-04-03T07:10:07.756Z,9.34
2023-04-03T07:11:07.760Z,9.19
2023-04-03T07:12:07.706Z,9.40
2023-04-03T07:13:07.693Z,9.06
2023-04-03T07:14:07.693Z,9.25
2023-04-03T07:15:07.681Z,9.11
2023-04-03T07:16:07.820Z,9.02
2023-04-03T07:17:07.657Z,8.87
2023-04-03T07:18:07.710Z,9.02
2023-04-03T07:19:07.645Z,9.14
2023-04-03T07:20:07.613Z,9.03
2023-04-03T07:21:07.614Z,9.14
2023-04-03T07:22:07.604Z,8.82
2023-04-03T07:23:07.585Z,8.97
2023-04-03T07:24:08.978Z,9.13
2023-04-03T07:25:07.558Z,9.08
2023-04-03T07:26:07.584Z,9.36
2023-04-03T07:27:07.545Z,9.58
2023-04-03T07:28:07.529Z,9.54
2023-04-03T07:29:07.563Z,9.10
2023-04-03T07:30:07.521Z,9.00
2023-04-03T07:31:07.570Z,8.87
2023-04-03T07:32:07.538Z,8.64
2023-04-03T07:33:07.525Z,8.60
2023-04-03T07:34:07.461Z,8.71
2023-04-03T07:35:07.478Z,8.81
2023-04-03T07:36:07.467Z,8.53
2023-04-03T07:37:07.482Z,8.63
2023-04-03T07:38:07.412Z,8.56
2023-04-03T07:39:07.407Z,8.31
2023-04-03T07:40:07.388Z,8.37
2023-04-03T07:41:07.390Z,8.33
2023-04-03T07:42:07.392Z,8.28
2023-04-03T07:43:07.384Z,8.09
2023-04-03T07:44:07.351Z,8.03
2023-04-03T07:45:07.393Z,7.80
2023-04-03T07:46:07.383Z,7.82
2023-04-03T07:47:07.332Z,7.80
2023-04-03T07:48:07.321Z,7.85
2023-04-03T07:49:07.299Z,7.98
2023-04-03T07:50:07.287Z,7.87
2023-04-03T07:51:07.269Z,7.66
2023-04-03T07:52:07.272Z,7.43
2023-04-03T07:53:07.273Z,7.51
2023-04-03T07:54:07.237Z,7.58
2023-04-03T07:55:07.228Z,7.77
2023-04-03T07:56:07.212Z,7.72
2023-04-03T07:57:07.265Z,7.69
2023-04-03T07:58:07.251Z,7.79
2023-04-03T07:59:07.175Z,7.77
2023-04-03T08:00:07.186Z,7.66
2023-04-03T08:01:07.185Z,7.70
2023-04-03T08:02:07.154Z,7.72
2023-04-03T08:03:09.608Z,7.75
2023-04-03T08:04:07.183Z,7.83
2023-04-03T08:05:07.156Z,7.90
2023-04-03T08:06:11.598Z,7.88
2023-04-03T08:07:08.124Z,7.77
2023-04-03T08:08:07.076Z,7.88
2023-04-03T08:09:07.072Z,8.00
2023-04-03T08:10:07.066Z,8.03
2023-04-03T08:11:07.045Z,8.13
2023-04-03T08:12:07.032Z,8.31
2023-04-03T08:13:07.052Z,8.36
2023-04-03T08:14:07.047Z,8.13
2023-04-03T08:15:07.004Z,7.98
2023-04-03T08:16:06.998Z,7.83
2023-04-03T08:17:07.005Z,7.83
2023-04-03T08:18:07.053Z,7.80
2023-04-03T08:19:09.684Z,7.77
2023-04-03T08:20:07.958Z,7.91
2023-04-03T08:21:06.947Z,7.87
2023-04-03T08:22:06.917Z,7.91
2023-04-03T08:23:06.915Z,7.75
2023-04-03T08:24:06.893Z,7.72
2023-04-03T08:25:06.878Z,7.56
2023-04-03T08:26:06.870Z,7.58
2023-04-03T08:27:06.879Z,7.79
2023-04-03T08:28:06.866Z,8.01
2023-04-03T08:29:06.832Z,8.23
2023-04-03T08:30:06.908Z,8.24
2023-04-03T08:31:06.862Z,8.41
2023-04-03T08:32:06.806Z,8.31
2023-04-03T08:33:06.882Z,8.41
2023-04-03T08:34:06.795Z,8.24
2023-04-03T08:35:06.766Z,8.20
2023-04-03T08:36:06.821Z,8.33
2023-04-03T08:37:06.756Z,8.52
2023-04-03T08:38:06.811Z,8.66
2023-04-03T08:39:06.725Z,8.58
2023-04-03T08:40:06.716Z,8.60
2023-04-03T08:41:06.724Z,8.52
2023-04-03T08:42:06.697Z,8.56
2023-04-03T08:43:06.695Z,8.61
2023-04-03T08:44:06.684Z,8.55
2023-04-03T08:45:06.666Z,8.53
2023-04-03T08:46:06.796Z,8.71
2023-04-03T08:47:06.639Z,8.85
2023-04-03T08:48:06.750Z,8.73
2023-04-03T08:49:06.666Z,8.76
2023-04-03T08:50:06.614Z,8.81
2023-04-03T08:51:10.924Z,8.99
2023-04-03T08:52:07.592Z,9.22
2023-04-03T08:53:06.566Z,9.34
2023-04-03T08:54:06.598Z,9.37
2023-04-03T08:55:06.550Z,9.44
2023-04-03T08:56:06.584Z,9.37
2023-04-03T08:57:06.558Z,9.31
2023-04-03T08:58:06.796Z,9.23
2023-04-03T08:59:06.494Z,9.19
2023-04-03T09:00:06.580Z,9.06
2023-04-03T09:01:06.482Z,9.21
2023-04-03T09:02:06.693Z,9.28
2023-04-03T09:03:06.513Z,9.26
2023-04-03T09:04:06.553Z,9.36
2023-04-03T09:05:06.444Z,9.34
2023-04-03T09:06:06.421Z,9.29
2023-04-03T09:07:06.406Z,9.29
2023-04-03T09:08:06.414Z,9.21
2023-04-03T09:09:06.394Z,9.04
2023-04-03T09:10:06.404Z,8.89
2023-04-03T09:11:06.360Z,9.02
2023-04-03T09:12:06.358Z,9.21
2023-04-03T09:13:06.346Z,9.31
2023-04-03T09:14:06.331Z,9.39
2023-04-03T09:15:06.336Z,9.68
2023-04-03T09:16:06.380Z,9.62
2023-04-03T09:17:06.307Z,9.56
2023-04-03T09:18:06.436Z,9.56
2023-04-03T09:19:06.273Z,9.65
2023-04-03T09:20:06.264Z,9.74
2023-04-03T09:21:06.262Z,9.95
2023-04-03T09:22:06.266Z,10.15
2023-04-03T09:23:06.225Z,10.38
2023-04-03T09:24:06.218Z,10.34
2023-04-03T09:25:06.201Z,10.44
2023-04-03T09:26:06.198Z,10.31
2023-04-03T09:27:06.207Z,9.98
2023-04-03T09:28:06.171Z,9.84
2023-04-03T09:29:06.159Z,9.87
2023-04-03T09:30:06.153Z,10.09
2023-04-03T09:31:06.193Z,10.07
2023-04-03T09:32:06.141Z,9.99
2023-04-03T09:33:06.144Z,10.12
2023-04-03T09:34:06.229Z,9.77
2023-04-03T09:35:18.979Z,9.66
2023-04-03T09:36:07.099Z,9.76
2023-04-03T09:37:06.098Z,9.95
2023-04-03T09:38:06.058Z,10.13
2023-04-03T09:39:06.063Z,10.15
2023-04-03T09:40:06.050Z,10.41
2023-04-03T09:41:06.049Z,10.44
2023-04-03T09:42:06.070Z,10.31
2023-04-03T09:43:06.000Z,10.26
2023-04-03T09:44:05.991Z,10.31
2023-04-03T09:45:05.977Z,10.33
2023-04-03T09:46:05.984Z,10.53
2023-04-03T09:47:06.024Z,10.68
2023-04-03T09:48:08.417Z,10.56
2023-04-03T09:49:09.411Z,10.59
2023-04-03T09:50:06.042Z,10.75
2023-04-03T09:51:05.915Z,10.82
2023-04-03T09:52:05.941Z,11.02
2023-04-03T09:53:05.890Z,10.93
2023-04-03T09:54:05.882Z,10.96
2023-04-03T09:55:05.863Z,10.96
2023-04-03T09:56:05.852Z,10.92
2023-04-03T09:57:05.870Z,10.96
2023-04-03T09:58:05.841Z,11.11
2023-04-03T09:59:05.824Z,11.23
2023-04-03T10:00:05.818Z,11.51
2023-04-03T10:01:05.861Z,11.36
2023-04-03T10:02:05.790Z,11.05
2023-04-03T10:03:05.863Z,10.82
2023-04-03T10:04:05.785Z,10.72
2023-04-03T10:05:09.907Z,10.72
2023-04-03T10:06:05.865Z,10.81
2023-04-03T10:07:05.749Z,10.79
2023-04-03T10:08:05.732Z,10.86
2023-04-03T10:09:05.716Z,10.89
2023-04-03T10:10:05.699Z,11.05
2023-04-03T10:11:05.687Z,11.11
2023-04-03T10:12:05.712Z,10.92
2023-04-03T10:13:05.673Z,10.99
2023-04-03T10:14:07.279Z,10.79
2023-04-03T10:15:05.681Z,10.64
2023-04-03T10:16:05.728Z,10.34
2023-04-03T10:17:05.617Z,10.37
2023-04-03T10:18:17.875Z,10.44
2023-04-03T10:19:06.618Z,10.23
2023-04-03T10:20:05.592Z,10.37
2023-04-03T10:21:06.192Z,10.49
2023-04-03T10:22:05.736Z,10.61
2023-04-03T10:23:05.550Z,10.78
2023-04-03T10:24:05.600Z,10.93
2023-04-03T10:25:05.539Z,10.69
2023-04-03T10:26:05.532Z,10.67
2023-04-03T10:27:05.514Z,10.67
2023-04-03T10:28:05.517Z,10.78
2023-04-03T10:29:05.490Z,10.74
2023-04-03T10:30:05.473Z,10.76
2023-04-03T10:31:05.472Z,10.78
2023-04-03T10:32:05.448Z,10.59
2023-04-03T10:33:05.578Z,10.51
2023-04-03T10:34:05.503Z,10.05
2023-04-03T10:35:05.728Z,10.07
2023-04-03T10:36:05.418Z,10.31
2023-04-03T10:37:05.390Z,10.40
2023-04-03T10:38:05.507Z,10.72
2023-04-03T10:39:05.375Z,10.74
2023-04-03T10:40:05.368Z,10.41
2023-04-03T10:41:05.366Z,10.17
2023-04-03T10:42:16.685Z,10.25
2023-04-03T10:43:06.342Z,10.25
2023-04-03T10:44:05.319Z,10.28
2023-04-03T10:45:05.306Z,10.33
2023-04-03T10:46:05.350Z,10.40
2023-04-03T10:47:05.299Z,10.38
2023-04-03T10:48:05.322Z,10.48
2023-04-03T10:49:05.254Z,10.56
2023-04-03T10:50:05.248Z,10.56
2023-04-03T10:51:05.245Z,10.67
2023-04-03T10:52:05.225Z,10.75
2023-04-03T10:53:05.243Z,10.86
2023-04-03T10:54:05.380Z,11.02
2023-04-03T10:55:05.194Z,10.86
2023-04-03T10:56:05.196Z,11.00
2023-04-03T10:57:12.732Z,11.07
2023-04-03T10:58:06.159Z,11.40
2023-04-03T10:59:05.145Z,11.55
2023-04-03T11:00:05.142Z,11.68
2023-04-03T11:01:05.171Z,11.63
2023-04-03T11:02:05.118Z,11.43
2023-04-03T11:03:05.261Z,11.26
2023-04-03T11:04:05.327Z,10.92
2023-04-03T11:05:05.093Z,10.81
2023-04-03T11:06:05.080Z,10.67
2023-04-03T11:07:05.064Z,10.81
2023-04-03T11:08:05.061Z,10.96
2023-04-03T11:09:05.040Z,11.07
2023-04-03T11:10:05.172Z,11.27
2023-04-03T11:11:05.021Z,11.48
2023-04-03T11:12:05.017Z,11.40
2023-04-03T11:13:05.000Z,11.50
2023-04-03T11:14:04.998Z,11.51
2023-04-03T11:15:04.982Z,11.70
2023-04-03T11:16:05.008Z,11.77
2023-04-03T11:17:04.952Z,11.84
2023-04-03T11:18:04.967Z,11.86
2023-04-03T11:19:04.959Z,11.83
2023-04-03T11:20:04.911Z,11.59
2023-04-03T11:21:04.902Z,11.50
2023-04-03T11:22:04.899Z,11.36
2023-04-03T11:23:04.959Z,11.41
2023-04-03T11:24:04.893Z,11.40
2023-04-03T11:25:04.854Z,11.25
2023-04-03T11:26:04.963Z,11.04
2023-04-03T11:27:04.847Z,11.00
2023-04-03T11:28:04.834Z,10.84
2023-04-03T11:29:04.832Z,10.81
2023-04-03T11:30:04.794Z,10.90
2023-04-03T11:31:04.895Z,10.94
2023-04-03T11:32:04.794Z,10.93
2023-04-03T11:33:04.822Z,10.92
2023-04-03T11:34:04.753Z,10.94
2023-04-03T11:35:04.743Z,10.97
2023-04-03T11:36:09.877Z,10.94
2023-04-03T11:37:05.720Z,11.05
2023-04-03T11:38:04.706Z,11.14
2023-04-03T11:39:04.700Z,11.18
2023-04-03T11:40:04.713Z,11.10
2023-04-03T11:41:04.670Z,10.74
2023-04-03T11:42:12.786Z,10.67
2023-04-03T11:43:05.674Z,10.79
2023-04-03T11:44:04.638Z,10.60
2023-04-03T11:45:04.644Z,10.40
2023-04-03T11:46:04.615Z,10.33
2023-04-03T11:47:04.723Z,10.19
2023-04-03T11:48:16.682Z,10.16
2023-04-03T11:49:05.602Z,10.40
2023-04-03T11:50:04.570Z,10.57
2023-04-03T11:51:04.575Z,10.74
2023-04-03T11:52:04.556Z,10.79
2023-04-03T11:53:04.541Z,10.97
2023-04-03T11:54:04.576Z,10.79
2023-04-03T11:55:04.516Z,10.90
2023-04-03T11:56:04.512Z,10.97
2023-04-03T11:57:04.540Z,10.81
2023-04-03T11:58:04.613Z,10.89
2023-04-03T11:59:05.309Z,10.93
2023-04-03T12:00:12.059Z,11.05
2023-04-03T12:01:04.479Z,11.14
2023-04-03T12:02:04.591Z,11.02
2023-04-03T12:03:04.603Z,10.44
2023-04-03T12:04:04.549Z,10.17
2023-04-03T12:05:04.424Z,10.05
2023-04-03T12:06:04.394Z,10.31
2023-04-03T12:07:04.378Z,10.31
2023-04-03T12:08:04.375Z,10.28
2023-04-03T12:09:04.353Z,10.25
2023-04-03T12:10:04.385Z,10.09
2023-04-03T12:11:04.334Z,10.17
2023-04-03T12:12:04.328Z,10.34
2023-04-03T12:13:04.319Z,10.38
2023-04-03T12:14:04.713Z,10.51
2023-04-03T12:15:04.291Z,10.61
2023-04-03T12:16:04.267Z,10.64
2023-04-03T12:17:04.267Z,10.69
2023-04-03T12:18:04.313Z,10.79
2023-04-03T12:19:04.239Z,10.81
2023-04-03T12:20:04.257Z,10.94
2023-04-03T12:21:04.250Z,10.90
2023-04-03T12:22:04.209Z,10.84
2023-04-03T12:23:05.725Z,10.69
2023-04-03T12:24:04.234Z,10.74
2023-04-03T12:25:04.176Z,10.74
2023-04-03T12:26:04.172Z,10.82
2023-04-03T12:27:04.157Z,10.96
2023-04-03T12:28:04.158Z,11.05
2023-04-03T12:29:04.120Z,11.27
2023-04-03T12:30:04.237Z,11.29
2023-04-03T12:31:04.223Z,11.17
2023-04-03T12:32:04.150Z,11.19
2023-04-03T12:33:12.712Z,11.36
2023-04-03T12:34:05.086Z,11.40
2023-04-03T12:35:04.085Z,11.51
2023-04-03T12:36:04.107Z,11.47
2023-04-03T12:37:04.047Z,11.65
2023-04-03T12:38:04.027Z,11.57
2023-04-03T12:39:04.011Z,11.55
2023-04-03T12:40:04.004Z,11.37
2023-04-03T12:41:04.007Z,11.05
2023-04-03T12:42:03.993Z,11.05
2023-04-03T12:43:04.369Z,10.92
2023-04-03T12:44:03.982Z,10.54
2023-04-03T12:45:03.966Z,10.01
2023-04-03T12:46:04.280Z,9.87
2023-04-03T12:47:03.964Z,9.65
2023-04-03T12:48:03.967Z,9.46
2023-04-03T12:49:03.904Z,9.47
2023-04-03T12:50:03.893Z,9.56
2023-04-03T12:51:03.882Z,9.77
2023-04-03T12:52:03.886Z,9.87
2023-04-03T12:53:03.894Z,9.77
2023-04-03T12:54:03.839Z,9.79
2023-04-03T12:55:03.830Z,9.73
2023-04-03T12:56:03.821Z,9.72
2023-04-03T12:57:03.815Z,9.83
2023-04-03T12:58:03.824Z,9.77
2023-04-03T12:59:03.791Z,9.92
2023-04-03T13:00:03.796Z,9.94
2023-04-03T13:01:03.763Z,10.12
2023-04-03T13:02:03.912Z,10.10
2023-04-03T13:03:03.971Z,10.31
2023-04-03T13:04:03.786Z,10.38
2023-04-03T13:05:03.720Z,10.46
2023-04-03T13:06:03.705Z,10.61
2023-04-03T13:07:03.699Z,10.48
2023-04-03T13:08:03.688Z,10.26
2023-04-03T13:09:03.696Z,10.23
2023-04-03T13:10:03.662Z,10.41
2023-04-03T13:11:03.666Z,10.81